Pontesbury, United Kingdom
Current Conditions -  °F | °C
As of 10:50 AM on Monday 20 Oct 2014 (Local Time) from EGOS Reporting Station
Light Rain Light Rain  
Wind Chill: 54°   Ceiling: 2000
Heat Index: 54°   Visibility: 5mi
Dew Point: 50°   Wind: 9mph
Humidity: 88%   Direction: 230°SW
Pressure: 29.94"   Gusts: NA
Location:  52.65°N, 2.89°W
Report Text: EGOS 200950Z 23008KT 8000 4000NW -RADZ FEW010 SCT014 OVC020 12/10 Q1014 GRN TEMPO 7000 RA GRN
Loading
Personal Weather Stations






























Interactive Weather Map
Tropical Storm Tracking
New forecast layout! Learn more

10-Day Weather Forecast

Advertisements
Track Severe Weather on mobile